< Typhoon 202215 2022 Season Typhoon 202217 >
Typhoon 202216 (NORU)
General InformationTrack Information on Google MapsDetailed Wind InformationForecast History on Google MapsAccess Analytics MapList of All Images || NewsDisaster Info.JMA Disaster Info. XMLWeblogTrackbackTyphoon FrontTwiphoonTyphoon Now!Typhoon ImaginationResourceGoogle EarthGE AnimationAtom FeedGeoJSON
Detalied Best Track (Time Zone = UTC)
Year Month Day Hour Lat. Long. Pressure (hPa) Wind (kt) Class Image Chart
2022 9 22 06 17.9 134.6 1002 30 2 Image Chart
2022 9 22 09 17.9 134.5 1002 30 2 Image Chart
2022 9 22 12 18.0 134.3 1004 30 2 Image Chart
2022 9 22 15 18.0 134.1 1004 30 2 Image Chart
2022 9 22 18 18.0 133.5 1002 30 2 Image Chart
2022 9 22 21 17.9 133.2 1002 30 2 Image Chart
2022 9 23 00 17.5 132.2 1002 30 2 Image Chart
2022 9 23 03 17.7 131.8 1002 30 2 Image Chart
2022 9 23 06 17.7 131.3 1000 35 3 Image Chart
2022 9 23 09 17.7 131.0 1000 35 3 Image Chart
2022 9 23 12 17.5 130.6 998 40 3 Image Chart
2022 9 23 15 17.1 130.1 998 40 3 Image Chart
2022 9 23 18 16.9 129.7 994 45 3 Image Chart
2022 9 23 21 16.5 128.4 994 45 3 Image Chart
2022 9 24 00 16.4 128.0 992 50 4 Image Chart
2022 9 24 03 16.1 127.5 990 55 4 Image Chart
2022 9 24 06 15.8 126.9 985 60 4 Image Chart
2022 9 24 09 15.8 126.6 980 65 5 Image Chart
2022 9 24 12 15.5 126.0 975 70 5 Image Chart
2022 9 24 15 15.3 125.4 970 75 5 Image Chart
2022 9 24 18 15.2 124.8 955 85 5 Image Chart
2022 9 24 21 15.0 124.2 950 90 5 Image Chart
2022 9 25 00 15.0 123.6 940 95 5 Image Chart
2022 9 25 03 15.0 123.1 940 95 5 Image Chart
2022 9 25 06 15.0 122.5 940 95 5 Image Chart
2022 9 25 09 15.0 122.1 940 95 5 Image Chart
2022 9 25 12 15.2 121.4 955 85 5 Image Chart
2022 9 25 15 15.5 120.7 960 80 5 Image Chart
2022 9 25 18 15.5 119.8 970 75 5 Image Chart
2022 9 25 21 15.8 119.2 970 75 5 Image Chart
2022 9 26 00 16.2 118.4 975 70 5 Image Chart
2022 9 26 03 16.0 117.8 975 70 5 Image Chart
2022 9 26 06 15.9 116.9 980 65 5 Image Chart
2022 9 26 09 15.9 116.3 980 65 5 Image Chart
2022 9 26 12 16.0 115.6 980 65 5 Image Chart
2022 9 26 15 16.0 114.4 975 70 5 Image Chart
2022 9 26 18 15.9 113.6 970 75 5 Image Chart
2022 9 26 21 15.6 112.8 960 80 5 Image Chart
2022 9 27 00 15.5 112.1 950 85 5 Image Chart
2022 9 27 03 15.3 111.8 950 85 5 Image Chart
2022 9 27 06 15.6 111.3 950 85 5 Image Chart
2022 9 27 09 15.7 110.8 950 85 5 Image Chart
2022 9 27 12 15.8 110.0 950 85 5 Image Chart
2022 9 27 15 15.9 109.6 950 85 5 Image Chart
2022 9 27 18 16.1 108.8 955 80 5 Image Chart
2022 9 27 21 16.1 108.6 965 75 5 Image Chart
2022 9 28 00 15.9 107.6 975 55 4 Image Chart
2022 9 28 03 15.9 107.5 985 50 4 Image Chart
2022 9 28 06 15.9 107.3 990 45 3 Image Chart
2022 9 28 09 15.9 105.3 990 45 3 Image Chart
2022 9 28 12 16.0 105.0 996 0 2 Image Chart
Japan Meteorological Agency Best Track Data | Correction Date : 2022-09-28
< Typhoon 202215 2022 Season Typhoon 202217 >

Help